Time;durP1;ratioP1;P1;durP2;ratioP2;P2;SDS_P1;SDS_P2;PMS_P1;PMS_P2;Temp;Humidity;BMP_temperature;BMP_pressure;BME280_temperature;BME280_humidity;BME280_pressure;Samples;Min_cycle;Max_cycle;Signal;HPM_P1;HPM_P2
2022/12/18 00:00:00;;;;;;;6.8;6.6;;;;;;;-4.8;100.0;102600;;;;
2022/12/18 00:01:05;;;;;;;6.8;6.6;;;;;;;-4.8;100.0;102600;;;;
2022/12/18 00:02:00;;;;;;;6.8;6.6;;;;;;;-4.9;100.0;102610;;;;
2022/12/18 00:03:00;;;;;;;6.8;6.6;;;;;;;-4.9;100.0;102610;;;;
2022/12/18 00:04:02;;;;;;;6.8;6.6;;;;;;;-4.9;100.0;102600;;;;
2022/12/18 00:05:00;;;;;;;6.8;6.6;;;;;;;-4.9;100.0;102600;;;;
2022/12/18 00:06:00;;;;;;;6.8;6.6;;;;;;;-5.0;100.0;102610;;;;
2022/12/18 00:07:00;;;;;;;6.8;6.6;;;;;;;-5.0;100.0;102610;;;;
2022/12/18 00:08:02;;;;;;;6.8;6.6;;;;;;;-5.3;100.0;102610;;;;
2022/12/18 00:09:01;;;;;;;6.8;6.6;;;;;;;-5.3;100.0;102610;;;;
2022/12/18 00:10:00;;;;;;;6.8;6.6;;;;;;;-5.2;100.0;102620;;;;
2022/12/18 00:11:07;;;;;;;6.8;6.6;;;;;;;-5.2;100.0;102620;;;;
2022/12/18 00:12:10;;;;;;;6.8;6.6;;;;;;;-5.2;100.0;102630;;;;
2022/12/18 00:13:06;;;;;;;6.8;6.6;;;;;;;-5.2;100.0;102630;;;;
2022/12/18 00:14:00;;;;;;;6.8;6.6;;;;;;;-5.2;100.0;102620;;;;
2022/12/18 00:15:00;;;;;;;6.8;6.6;;;;;;;-5.2;100.0;102620;;;;
2022/12/18 00:16:02;;;;;;;6.3;6.1;;;;;;;-5.2;100.0;102620;;;;
2022/12/18 00:17:00;;;;;;;6.3;6.1;;;;;;;-5.2;100.0;102620;;;;
2022/12/18 00:18:00;;;;;;;6.3;6.1;;;;;;;-5.2;100.0;102610;;;;
2022/12/18 00:19:00;;;;;;;6.3;6.1;;;;;;;-5.2;100.0;102610;;;;
2022/12/18 00:20:00;;;;;;;6.3;6.1;;;;;;;-5.2;100.0;102620;;;;
2022/12/18 00:21:01;;;;;;;6.3;6.1;;;;;;;-5.2;100.0;102620;;;;
2022/12/18 00:22:00;;;;;;;6.3;6.1;;;;;;;-5.2;100.0;102610;;;;
2022/12/18 00:23:00;;;;;;;6.3;6.1;;;;;;;-5.2;100.0;102610;;;;
2022/12/18 00:24:00;;;;;;;6.3;6.1;;;;;;;-5.2;100.0;102610;;;;
2022/12/18 00:25:00;;;;;;;6.3;6.1;;;;;;;-5.2;100.0;102610;;;;
2022/12/18 00:26:00;;;;;;;6.3;6.1;;;;;;;-5.4;100.0;102610;;;;
2022/12/18 00:27:00;;;;;;;6.3;6.1;;;;;;;-5.4;100.0;102610;;;;
2022/12/18 00:28:00;;;;;;;6.3;6.1;;;;;;;-5.3;100.0;102610;;;;
2022/12/18 00:29:03;;;;;;;6.3;6.1;;;;;;;-5.3;100.0;102610;;;;
2022/12/18 00:30:00;;;;;;;6.3;6.1;;;;;;;-5.2;100.0;102600;;;;
2022/12/18 00:31:01;;;;;;;6.3;6.1;;;;;;;-5.2;100.0;102600;;;;
2022/12/18 00:32:00;;;;;;;6.3;6.1;;;;;;;-5.5;100.0;102600;;;;
2022/12/18 00:33:00;;;;;;;6.3;6.1;;;;;;;-5.5;100.0;102600;;;;
2022/12/18 00:34:00;;;;;;;6.3;6.1;;;;;;;-5.6;100.0;102600;;;;
2022/12/18 00:35:00;;;;;;;6.3;6.1;;;;;;;-5.6;100.0;102600;;;;
2022/12/18 00:36:02;;;;;;;6.3;6.1;;;;;;;-5.4;100.0;102600;;;;
2022/12/18 00:37:00;;;;;;;6.3;6.1;;;;;;;-5.4;100.0;102600;;;;
2022/12/18 00:38:00;;;;;;;6.3;6.1;;;;;;;-5.3;100.0;102600;;;;
2022/12/18 00:39:02;;;;;;;6.3;6.1;;;;;;;-5.3;100.0;102600;;;;
2022/12/18 00:40:00;;;;;;;6.3;6.1;;;;;;;-5.4;100.0;102600;;;;
2022/12/18 00:41:00;;;;;;;6.3;6.1;;;;;;;-5.4;100.0;102600;;;;
2022/12/18 00:43:00;;;;;;;6.3;6.1;;;;;;;-5.3;100.0;102600;;;;
2022/12/18 00:44:00;;;;;;;6.3;6.1;;;;;;;-5.1;100.0;102600;;;;
2022/12/18 00:45:00;;;;;;;6.3;6.1;;;;;;;-5.1;100.0;102600;;;;
2022/12/18 00:46:00;;;;;;;6.3;6.1;;;;;;;-5.3;100.0;102600;;;;
2022/12/18 00:47:00;;;;;;;6.3;6.1;;;;;;;-5.3;100.0;102600;;;;
2022/12/18 00:48:00;;;;;;;6.3;6.1;;;;;;;-5.4;100.0;102600;;;;
2022/12/18 00:49:00;;;;;;;6.3;6.1;;;;;;;-5.4;100.0;102600;;;;
2022/12/18 00:50:00;;;;;;;6.3;6.1;;;;;;;-5.4;100.0;102600;;;;
2022/12/18 00:51:00;;;;;;;6.3;6.1;;;;;;;-5.4;100.0;102600;;;;
2022/12/18 00:52:00;;;;;;;6.3;6.1;;;;;;;-5.6;100.0;102600;;;;
2022/12/18 00:53:00;;;;;;;6.3;6.1;;;;;;;-5.6;100.0;102600;;;;
2022/12/18 00:54:00;;;;;;;6.3;6.1;;;;;;;-5.5;100.0;102600;;;;
2022/12/18 00:55:06;;;;;;;6.3;6.1;;;;;;;-5.5;100.0;102600;;;;
2022/12/18 00:56:00;;;;;;;5.9;5.7;;;;;;;-5.6;100.0;102600;;;;
2022/12/18 00:57:00;;;;;;;5.9;5.7;;;;;;;-5.6;100.0;102600;;;;
2022/12/18 00:58:00;;;;;;;5.9;5.7;;;;;;;-5.8;100.0;102600;;;;
2022/12/18 00:59:00;;;;;;;5.9;5.7;;;;;;;-5.8;100.0;102600;;;;
2022/12/18 01:00:00;;;;;;;5.9;5.7;;;;;;;-5.8;100.0;102600;;;;
2022/12/18 01:01:00;;;;;;;5.9;5.7;;;;;;;-5.8;100.0;102600;;;;
2022/12/18 01:02:00;;;;;;;5.9;5.7;;;;;;;-5.8;100.0;102590;;;;
2022/12/18 01:03:00;;;;;;;5.9;5.7;;;;;;;-5.8;100.0;102590;;;;
2022/12/18 01:04:01;;;;;;;5.9;5.7;;;;;;;-5.8;100.0;102590;;;;
2022/12/18 01:05:00;;;;;;;5.9;5.7;;;;;;;-5.8;100.0;102590;;;;
2022/12/18 01:06:05;;;;;;;5.9;5.7;;;;;;;-5.8;100.0;102600;;;;
2022/12/18 01:07:00;;;;;;;5.9;5.7;;;;;;;-5.8;100.0;102600;;;;
2022/12/18 01:08:00;;;;;;;5.9;5.7;;;;;;;-5.7;100.0;102600;;;;
2022/12/18 01:09:00;;;;;;;5.9;5.7;;;;;;;-5.7;100.0;102600;;;;
2022/12/18 01:10:00;;;;;;;5.9;5.7;;;;;;;-5.7;100.0;102600;;;;
2022/12/18 01:11:00;;;;;;;5.9;5.7;;;;;;;-5.7;100.0;102600;;;;
2022/12/18 01:12:00;;;;;;;5.9;5.7;;;;;;;-5.7;100.0;102600;;;;
2022/12/18 01:13:00;;;;;;;5.9;5.7;;;;;;;-5.7;100.0;102600;;;;
2022/12/18 01:14:00;;;;;;;5.9;5.7;;;;;;;-5.7;100.0;102610;;;;
2022/12/18 01:15:00;;;;;;;5.9;5.7;;;;;;;-5.7;100.0;102610;;;;
2022/12/18 01:16:00;;;;;;;6.2;6.0;;;;;;;-5.8;100.0;102620;;;;
2022/12/18 01:17:02;;;;;;;6.2;6.0;;;;;;;-5.8;100.0;102620;;;;
2022/12/18 01:18:00;;;;;;;6.2;6.0;;;;;;;-5.7;100.0;102620;;;;
2022/12/18 01:19:00;;;;;;;6.2;6.0;;;;;;;-5.7;100.0;102620;;;;
2022/12/18 01:20:00;;;;;;;6.2;6.0;;;;;;;-5.8;100.0;102620;;;;
2022/12/18 01:21:00;;;;;;;6.2;6.0;;;;;;;-5.8;100.0;102620;;;;
2022/12/18 01:22:00;;;;;;;6.2;6.0;;;;;;;-5.7;100.0;102620;;;;
2022/12/18 01:23:00;;;;;;;6.2;6.0;;;;;;;-5.7;100.0;102620;;;;
2022/12/18 01:24:00;;;;;;;6.2;6.0;;;;;;;-5.8;100.0;102620;;;;
2022/12/18 01:25:00;;;;;;;6.2;6.0;;;;;;;-5.8;100.0;102620;;;;
2022/12/18 01:26:08;;;;;;;6.2;6.0;;;;;;;-5.7;100.0;102620;;;;
2022/12/18 01:27:00;;;;;;;6.2;6.0;;;;;;;-5.7;100.0;102620;;;;
2022/12/18 01:28:01;;;;;;;6.2;6.0;;;;;;;-5.6;100.0;102620;;;;
2022/12/18 01:29:00;;;;;;;6.2;6.0;;;;;;;-5.6;100.0;102620;;;;
2022/12/18 01:30:00;;;;;;;6.2;6.0;;;;;;;-5.7;100.0;102620;;;;
2022/12/18 01:31:10;;;;;;;6.2;6.0;;;;;;;-5.7;100.0;102620;;;;
2022/12/18 01:32:00;;;;;;;6.2;6.0;;;;;;;-5.7;100.0;102620;;;;
2022/12/18 01:33:00;;;;;;;6.2;6.0;;;;;;;-5.7;100.0;102620;;;;
2022/12/18 01:34:01;;;;;;;6.2;6.0;;;;;;;-5.6;100.0;102620;;;;
2022/12/18 01:35:00;;;;;;;5.9;5.7;;;;;;;-5.6;100.0;102620;;;;
2022/12/18 01:36:00;;;;;;;5.9;5.7;;;;;;;-5.6;100.0;102610;;;;
2022/12/18 01:37:02;;;;;;;5.9;5.7;;;;;;;-5.6;100.0;102610;;;;
2022/12/18 01:38:00;;;;;;;5.9;5.7;;;;;;;-5.6;100.0;102610;;;;
2022/12/18 01:39:01;;;;;;;5.9;5.7;;;;;;;-5.6;100.0;102610;;;;
2022/12/18 01:40:00;;;;;;;5.9;5.7;;;;;;;-5.6;100.0;102600;;;;
2022/12/18 01:41:00;;;;;;;5.9;5.7;;;;;;;-5.6;100.0;102600;;;;
2022/12/18 01:42:02;;;;;;;5.9;5.7;;;;;;;-5.5;100.0;102610;;;;
2022/12/18 01:43:00;;;;;;;5.9;5.7;;;;;;;-5.5;100.0;102610;;;;
2022/12/18 01:44:00;;;;;;;5.9;5.7;;;;;;;-5.6;100.0;102600;;;;
2022/12/18 01:45:10;;;;;;;5.9;5.7;;;;;;;-5.6;100.0;102600;;;;
2022/12/18 01:46:00;;;;;;;5.9;5.7;;;;;;;-5.9;100.0;102600;;;;
2022/12/18 01:47:00;;;;;;;5.9;5.7;;;;;;;-5.9;100.0;102600;;;;
2022/12/18 01:48:03;;;;;;;5.9;5.7;;;;;;;-5.8;100.0;102600;;;;
2022/12/18 01:49:01;;;;;;;5.9;5.7;;;;;;;-5.8;100.0;102600;;;;
2022/12/18 01:50:02;;;;;;;5.9;5.7;;;;;;;-5.8;100.0;102600;;;;
2022/12/18 01:51:00;;;;;;;5.9;5.7;;;;;;;-5.8;100.0;102600;;;;
2022/12/18 01:52:00;;;;;;;5.9;5.7;;;;;;;-5.8;100.0;102600;;;;
2022/12/18 01:53:05;;;;;;;5.9;5.7;;;;;;;-5.8;100.0;102600;;;;
2022/12/18 01:54:00;;;;;;;5.9;5.7;;;;;;;-5.8;100.0;102600;;;;
2022/12/18 01:55:01;;;;;;;6.6;6.4;;;;;;;-5.8;100.0;102600;;;;
2022/12/18 01:56:00;;;;;;;6.6;6.4;;;;;;;-5.8;100.0;102600;;;;
2022/12/18 01:57:00;;;;;;;6.6;6.4;;;;;;;-5.8;100.0;102600;;;;
2022/12/18 01:58:00;;;;;;;6.6;6.4;;;;;;;-5.9;100.0;102590;;;;
2022/12/18 01:59:02;;;;;;;6.6;6.4;;;;;;;-5.9;100.0;102590;;;;
2022/12/18 02:00:02;;;;;;;6.6;6.4;;;;;;;-5.8;100.0;102600;;;;
2022/12/18 02:01:00;;;;;;;6.6;6.4;;;;;;;-5.8;100.0;102600;;;;
2022/12/18 02:02:02;;;;;;;6.6;6.4;;;;;;;-5.9;100.0;102600;;;;
2022/12/18 02:03:00;;;;;;;6.6;6.4;;;;;;;-5.9;100.0;102600;;;;
2022/12/18 02:04:10;;;;;;;6.6;6.4;;;;;;;-5.8;100.0;102600;;;;
2022/12/18 02:05:00;;;;;;;6.6;6.4;;;;;;;-5.8;100.0;102600;;;;
2022/12/18 02:06:10;;;;;;;6.6;6.4;;;;;;;-6.0;100.0;102600;;;;
2022/12/18 02:07:10;;;;;;;6.6;6.4;;;;;;;-6.0;100.0;102600;;;;
2022/12/18 02:08:10;;;;;;;6.6;6.4;;;;;;;-6.1;100.0;102610;;;;
2022/12/18 02:09:10;;;;;;;6.6;6.4;;;;;;;-6.1;100.0;102610;;;;
2022/12/18 02:10:10;;;;;;;6.6;6.4;;;;;;;-6.0;100.0;102600;;;;
2022/12/18 02:11:10;;;;;;;6.6;6.4;;;;;;;-6.0;100.0;102600;;;;
2022/12/18 02:12:01;;;;;;;6.6;6.4;;;;;;;-5.9;100.0;102600;;;;
2022/12/18 02:13:00;;;;;;;6.6;6.4;;;;;;;-5.9;100.0;102600;;;;
2022/12/18 02:14:10;;;;;;;6.6;6.4;;;;;;;-5.9;100.0;102600;;;;
2022/12/18 02:15:06;;;;;;;6.4;6.2;;;;;;;-5.9;100.0;102600;;;;
2022/12/18 02:16:01;;;;;;;6.4;6.2;;;;;;;-6.2;100.0;102600;;;;
2022/12/18 02:17:10;;;;;;;6.4;6.2;;;;;;;-6.2;100.0;102600;;;;
2022/12/18 02:18:08;;;;;;;6.4;6.2;;;;;;;-6.2;100.0;102600;;;;
2022/12/18 02:19:03;;;;;;;6.4;6.2;;;;;;;-6.2;100.0;102600;;;;
2022/12/18 02:20:10;;;;;;;6.4;6.2;;;;;;;-6.2;100.0;102600;;;;
2022/12/18 02:21:10;;;;;;;6.4;6.2;;;;;;;-6.2;100.0;102600;;;;
2022/12/18 02:22:10;;;;;;;6.4;6.2;;;;;;;-6.2;100.0;102590;;;;
2022/12/18 02:23:01;;;;;;;6.4;6.2;;;;;;;-6.2;100.0;102590;;;;
2022/12/18 02:24:10;;;;;;;6.4;6.2;;;;;;;-6.1;100.0;102600;;;;
2022/12/18 02:25:10;;;;;;;6.4;6.2;;;;;;;-6.1;100.0;102600;;;;
2022/12/18 02:26:10;;;;;;;6.4;6.2;;;;;;;-6.2;100.0;102600;;;;
2022/12/18 02:27:04;;;;;;;6.4;6.2;;;;;;;-6.2;100.0;102600;;;;
2022/12/18 02:28:01;;;;;;;6.4;6.2;;;;;;;-6.4;100.0;102600;;;;
2022/12/18 02:29:04;;;;;;;6.4;6.2;;;;;;;-6.4;100.0;102600;;;;
2022/12/18 02:30:01;;;;;;;6.4;6.2;;;;;;;-6.2;100.0;102600;;;;
2022/12/18 02:31:02;;;;;;;6.4;6.2;;;;;;;-6.2;100.0;102600;;;;
2022/12/18 02:32:02;;;;;;;6.4;6.2;;;;;;;-6.3;100.0;102600;;;;
2022/12/18 02:33:02;;;;;;;6.4;6.2;;;;;;;-6.3;100.0;102600;;;;
2022/12/18 02:34:02;;;;;;;6.4;6.2;;;;;;;-6.3;100.0;102600;;;;
2022/12/18 02:35:02;;;;;;;6.7;6.5;;;;;;;-6.3;100.0;102600;;;;
2022/12/18 02:36:01;;;;;;;6.7;6.5;;;;;;;-6.4;100.0;102590;;;;
2022/12/18 02:37:02;;;;;;;6.7;6.5;;;;;;;-6.4;100.0;102590;;;;
2022/12/18 02:38:01;;;;;;;6.7;6.5;;;;;;;-6.4;100.0;102600;;;;
2022/12/18 02:39:01;;;;;;;6.7;6.5;;;;;;;-6.4;100.0;102600;;;;
2022/12/18 02:40:01;;;;;;;6.7;6.5;;;;;;;-6.2;100.0;102590;;;;
2022/12/18 02:41:00;;;;;;;6.7;6.5;;;;;;;-6.2;100.0;102590;;;;
2022/12/18 02:42:07;;;;;;;6.7;6.5;;;;;;;-6.2;100.0;102590;;;;
2022/12/18 02:43:10;;;;;;;6.7;6.5;;;;;;;-6.2;100.0;102590;;;;
2022/12/18 02:44:01;;;;;;;6.7;6.5;;;;;;;-6.3;100.0;102590;;;;
2022/12/18 02:45:00;;;;;;;6.7;6.5;;;;;;;-6.3;100.0;102590;;;;
2022/12/18 02:46:01;;;;;;;6.7;6.5;;;;;;;-6.3;100.0;102590;;;;
2022/12/18 02:47:01;;;;;;;6.7;6.5;;;;;;;-6.3;100.0;102590;;;;
2022/12/18 02:48:00;;;;;;;6.7;6.5;;;;;;;-6.2;100.0;102590;;;;
2022/12/18 02:49:05;;;;;;;6.7;6.5;;;;;;;-6.2;100.0;102590;;;;
2022/12/18 02:50:02;;;;;;;6.7;6.5;;;;;;;-6.3;100.0;102590;;;;
2022/12/18 02:51:00;;;;;;;6.7;6.5;;;;;;;-6.3;100.0;102590;;;;
2022/12/18 02:52:10;;;;;;;6.7;6.5;;;;;;;-6.3;100.0;102590;;;;
2022/12/18 02:53:11;;;;;;;6.7;6.5;;;;;;;-6.3;100.0;102590;;;;
2022/12/18 02:54:10;;;;;;;6.7;6.5;;;;;;;-6.4;100.0;102580;;;;
2022/12/18 02:55:01;;;;;;;6.3;6.1;;;;;;;-6.4;100.0;102580;;;;
2022/12/18 02:56:03;;;;;;;6.3;6.1;;;;;;;-6.3;100.0;102580;;;;
2022/12/18 02:57:04;;;;;;;6.3;6.1;;;;;;;-6.3;100.0;102580;;;;
2022/12/18 02:58:03;;;;;;;6.3;6.1;;;;;;;-6.4;100.0;102570;;;;
2022/12/18 02:59:00;;;;;;;6.3;6.1;;;;;;;-6.4;100.0;102570;;;;
2022/12/18 03:00:07;;;;;;;6.3;6.1;;;;;;;-6.4;100.0;102570;;;;
2022/12/18 03:01:03;;;;;;;6.3;6.1;;;;;;;-6.4;100.0;102570;;;;
2022/12/18 03:02:06;;;;;;;6.3;6.1;;;;;;;-6.5;100.0;102570;;;;
2022/12/18 03:03:05;;;;;;;6.3;6.1;;;;;;;-6.5;100.0;102570;;;;
2022/12/18 03:04:04;;;;;;;6.3;6.1;;;;;;;-6.6;100.0;102570;;;;
2022/12/18 03:05:07;;;;;;;6.3;6.1;;;;;;;-6.6;100.0;102570;;;;
2022/12/18 03:06:04;;;;;;;6.3;6.1;;;;;;;-6.6;100.0;102570;;;;
2022/12/18 03:07:03;;;;;;;6.3;6.1;;;;;;;-6.6;100.0;102570;;;;
2022/12/18 03:08:06;;;;;;;6.3;6.1;;;;;;;-6.5;100.0;102570;;;;
2022/12/18 03:09:04;;;;;;;6.3;6.1;;;;;;;-6.5;100.0;102570;;;;
2022/12/18 03:10:01;;;;;;;6.3;6.1;;;;;;;-6.5;100.0;102570;;;;
2022/12/18 03:11:03;;;;;;;6.3;6.1;;;;;;;-6.5;100.0;102570;;;;
2022/12/18 03:13:04;;;;;;;6.3;6.1;;;;;;;-6.5;100.0;102570;;;;
2022/12/18 03:14:01;;;;;;;6.3;6.1;;;;;;;-6.5;100.0;102580;;;;
2022/12/18 03:15:17;;;;;;;6.8;6.6;;;;;;;-6.5;100.0;102580;;;;
2022/12/18 03:16:01;;;;;;;6.8;6.6;;;;;;;-6.5;100.0;102570;;;;
2022/12/18 03:17:02;;;;;;;6.8;6.6;;;;;;;-6.5;100.0;102570;;;;
2022/12/18 03:18:04;;;;;;;6.8;6.6;;;;;;;-6.5;100.0;102570;;;;
2022/12/18 03:19:03;;;;;;;6.8;6.6;;;;;;;-6.5;100.0;102570;;;;
2022/12/18 03:20:07;;;;;;;6.8;6.6;;;;;;;-6.7;100.0;102570;;;;
2022/12/18 03:21:02;;;;;;;6.8;6.6;;;;;;;-6.7;100.0;102570;;;;
2022/12/18 03:22:02;;;;;;;6.8;6.6;;;;;;;-6.7;100.0;102570;;;;
2022/12/18 03:23:04;;;;;;;6.8;6.6;;;;;;;-6.7;100.0;102570;;;;
2022/12/18 03:24:01;;;;;;;6.8;6.6;;;;;;;-6.6;100.0;102570;;;;
2022/12/18 03:25:02;;;;;;;6.8;6.6;;;;;;;-6.6;100.0;102570;;;;
2022/12/18 03:26:07;;;;;;;6.8;6.6;;;;;;;-6.7;100.0;102570;;;;
2022/12/18 03:27:02;;;;;;;6.8;6.6;;;;;;;-6.7;100.0;102570;;;;
2022/12/18 03:28:02;;;;;;;6.8;6.6;;;;;;;-6.6;100.0;102560;;;;
2022/12/18 03:29:04;;;;;;;6.8;6.6;;;;;;;-6.6;100.0;102560;;;;
2022/12/18 03:30:07;;;;;;;6.8;6.6;;;;;;;-6.6;100.0;102560;;;;
2022/12/18 03:31:01;;;;;;;6.8;6.6;;;;;;;-6.6;100.0;102560;;;;
2022/12/18 03:32:04;;;;;;;6.8;6.6;;;;;;;-6.7;100.0;102570;;;;
2022/12/18 03:33:00;;;;;;;6.8;6.6;;;;;;;-6.7;100.0;102570;;;;
2022/12/18 03:34:04;;;;;;;6.8;6.6;;;;;;;-6.8;100.0;102560;;;;
2022/12/18 03:35:03;;;;;;;6.3;6.1;;;;;;;-6.8;100.0;102560;;;;
2022/12/18 03:36:00;;;;;;;6.3;6.1;;;;;;;-6.7;100.0;102560;;;;
2022/12/18 03:37:01;;;;;;;6.3;6.1;;;;;;;-6.7;100.0;102560;;;;
2022/12/18 03:38:00;;;;;;;6.3;6.1;;;;;;;-6.7;100.0;102560;;;;
2022/12/18 03:39:00;;;;;;;6.3;6.1;;;;;;;-6.7;100.0;102560;;;;
2022/12/18 03:40:00;;;;;;;6.3;6.1;;;;;;;-6.8;100.0;102560;;;;
2022/12/18 03:41:07;;;;;;;6.3;6.1;;;;;;;-6.8;100.0;102560;;;;
2022/12/18 03:42:05;;;;;;;6.3;6.1;;;;;;;-6.6;100.0;102560;;;;
2022/12/18 03:43:08;;;;;;;6.3;6.1;;;;;;;-6.6;100.0;102560;;;;
2022/12/18 03:44:10;;;;;;;6.3;6.1;;;;;;;-6.7;100.0;102560;;;;
2022/12/18 03:45:06;;;;;;;6.3;6.1;;;;;;;-6.7;100.0;102560;;;;
2022/12/18 03:46:06;;;;;;;6.3;6.1;;;;;;;-6.7;100.0;102550;;;;
2022/12/18 03:47:05;;;;;;;6.3;6.1;;;;;;;-6.7;100.0;102550;;;;
2022/12/18 03:48:04;;;;;;;6.3;6.1;;;;;;;-6.8;100.0;102540;;;;
2022/12/18 03:49:08;;;;;;;6.3;6.1;;;;;;;-6.8;100.0;102540;;;;
2022/12/18 03:50:14;;;;;;;6.3;6.1;;;;;;;-6.8;100.0;102540;;;;
2022/12/18 03:51:05;;;;;;;6.3;6.1;;;;;;;-6.8;100.0;102540;;;;
2022/12/18 03:52:04;;;;;;;6.3;6.1;;;;;;;-6.7;100.0;102540;;;;
2022/12/18 03:53:06;;;;;;;6.3;6.1;;;;;;;-6.7;100.0;102540;;;;
2022/12/18 03:54:02;;;;;;;6.3;6.1;;;;;;;-6.8;100.0;102540;;;;
2022/12/18 03:55:01;;;;;;;6.3;6.1;;;;;;;-6.8;100.0;102540;;;;
2022/12/18 03:56:02;;;;;;;6.3;6.1;;;;;;;-6.9;100.0;102530;;;;
2022/12/18 03:57:04;;;;;;;6.3;6.1;;;;;;;-6.9;100.0;102530;;;;
2022/12/18 03:58:01;;;;;;;6.3;6.1;;;;;;;-6.9;100.0;102530;;;;
2022/12/18 03:59:02;;;;;;;6.3;6.1;;;;;;;-6.9;100.0;102530;;;;
2022/12/18 04:00:03;;;;;;;6.3;6.1;;;;;;;-7.0;100.0;102530;;;;
2022/12/18 04:01:02;;;;;;;6.3;6.1;;;;;;;-7.0;100.0;102530;;;;
2022/12/18 04:02:01;;;;;;;6.3;6.1;;;;;;;-7.0;100.0;102520;;;;
2022/12/18 04:03:01;;;;;;;6.3;6.1;;;;;;;-7.0;100.0;102520;;;;
2022/12/18 04:04:01;;;;;;;6.3;6.1;;;;;;;-7.0;100.0;102530;;;;
2022/12/18 04:05:02;;;;;;;6.3;6.1;;;;;;;-7.0;100.0;102530;;;;
2022/12/18 04:06:01;;;;;;;6.3;6.1;;;;;;;-7.0;100.0;102520;;;;
2022/12/18 04:07:01;;;;;;;6.3;6.1;;;;;;;-7.0;100.0;102520;;;;
2022/12/18 04:08:01;;;;;;;6.3;6.1;;;;;;;-7.0;100.0;102520;;;;
2022/12/18 04:09:00;;;;;;;6.3;6.1;;;;;;;-7.0;100.0;102520;;;;
2022/12/18 04:10:02;;;;;;;6.3;6.1;;;;;;;-7.0;100.0;102520;;;;
2022/12/18 04:11:00;;;;;;;6.3;6.1;;;;;;;-7.0;100.0;102520;;;;
2022/12/18 04:12:00;;;;;;;6.3;6.1;;;;;;;-6.9;100.0;102520;;;;
2022/12/18 04:13:00;;;;;;;6.3;6.1;;;;;;;-6.9;100.0;102520;;;;
2022/12/18 04:14:04;;;;;;;6.3;6.1;;;;;;;-6.8;100.0;102520;;;;
2022/12/18 04:15:00;;;;;;;6.5;6.3;;;;;;;-6.8;100.0;102520;;;;
2022/12/18 04:16:01;;;;;;;6.5;6.3;;;;;;;-6.7;100.0;102510;;;;
2022/12/18 04:17:00;;;;;;;6.5;6.3;;;;;;;-6.7;100.0;102510;;;;
2022/12/18 04:18:00;;;;;;;6.5;6.3;;;;;;;-6.8;100.0;102510;;;;
2022/12/18 04:19:00;;;;;;;6.5;6.3;;;;;;;-6.8;100.0;102510;;;;
2022/12/18 04:20:00;;;;;;;6.5;6.3;;;;;;;-6.9;100.0;102500;;;;
2022/12/18 04:21:00;;;;;;;6.5;6.3;;;;;;;-6.9;100.0;102500;;;;
2022/12/18 04:22:00;;;;;;;6.5;6.3;;;;;;;-6.9;100.0;102500;;;;
2022/12/18 04:23:00;;;;;;;6.5;6.3;;;;;;;-6.9;100.0;102500;;;;
2022/12/18 04:24:00;;;;;;;6.5;6.3;;;;;;;-6.9;100.0;102500;;;;
2022/12/18 04:25:00;;;;;;;6.5;6.3;;;;;;;-6.9;100.0;102500;;;;
2022/12/18 04:26:00;;;;;;;6.5;6.3;;;;;;;-6.9;100.0;102500;;;;
2022/12/18 04:27:00;;;;;;;6.5;6.3;;;;;;;-6.9;100.0;102500;;;;
2022/12/18 04:28:00;;;;;;;6.5;6.3;;;;;;;-6.9;100.0;102500;;;;
2022/12/18 04:29:00;;;;;;;6.5;6.3;;;;;;;-6.9;100.0;102500;;;;
2022/12/18 04:30:00;;;;;;;6.5;6.3;;;;;;;-6.9;100.0;102510;;;;
2022/12/18 04:31:00;;;;;;;6.5;6.3;;;;;;;-6.9;100.0;102510;;;;
2022/12/18 04:32:01;;;;;;;6.5;6.3;;;;;;;-6.8;100.0;102500;;;;
2022/12/18 04:33:00;;;;;;;6.5;6.3;;;;;;;-6.8;100.0;102500;;;;
2022/12/18 04:34:00;;;;;;;6.8;6.6;;;;;;;-6.8;100.0;102500;;;;
2022/12/18 04:35:00;;;;;;;6.8;6.6;;;;;;;-6.8;100.0;102500;;;;
2022/12/18 04:36:00;;;;;;;6.8;6.6;;;;;;;-6.7;100.0;102500;;;;
2022/12/18 04:37:00;;;;;;;6.8;6.6;;;;;;;-6.7;100.0;102500;;;;
2022/12/18 04:38:00;;;;;;;6.8;6.6;;;;;;;-6.9;100.0;102500;;;;
2022/12/18 04:39:00;;;;;;;6.8;6.6;;;;;;;-6.9;100.0;102500;;;;
2022/12/18 04:40:00;;;;;;;6.8;6.6;;;;;;;-7.0;100.0;102500;;;;
2022/12/18 04:41:00;;;;;;;6.8;6.6;;;;;;;-7.0;100.0;102500;;;;
2022/12/18 04:42:00;;;;;;;6.8;6.6;;;;;;;-6.9;100.0;102500;;;;
2022/12/18 04:43:00;;;;;;;6.8;6.6;;;;;;;-6.9;100.0;102500;;;;
2022/12/18 04:44:00;;;;;;;6.8;6.6;;;;;;;-6.9;100.0;102510;;;;
2022/12/18 04:45:00;;;;;;;6.8;6.6;;;;;;;-6.9;100.0;102510;;;;
2022/12/18 04:46:02;;;;;;;6.8;6.6;;;;;;;-6.9;100.0;102510;;;;
2022/12/18 04:47:00;;;;;;;6.8;6.6;;;;;;;-6.9;100.0;102510;;;;
2022/12/18 04:48:00;;;;;;;6.8;6.6;;;;;;;-6.9;100.0;102510;;;;
2022/12/18 04:49:00;;;;;;;6.8;6.6;;;;;;;-6.9;100.0;102510;;;;
2022/12/18 04:50:00;;;;;;;6.8;6.6;;;;;;;-6.8;100.0;102510;;;;
2022/12/18 04:51:00;;;;;;;6.8;6.6;;;;;;;-6.8;100.0;102510;;;;
2022/12/18 04:52:00;;;;;;;6.8;6.6;;;;;;;-6.9;100.0;102520;;;;
2022/12/18 04:53:00;;;;;;;6.8;6.6;;;;;;;-6.9;100.0;102520;;;;
2022/12/18 04:54:00;;;;;;;6.7;6.5;;;;;;;-6.7;100.0;102530;;;;
2022/12/18 04:55:00;;;;;;;6.7;6.5;;;;;;;-6.7;100.0;102530;;;;
2022/12/18 04:56:02;;;;;;;6.7;6.5;;;;;;;-6.8;100.0;102520;;;;
2022/12/18 04:57:00;;;;;;;6.7;6.5;;;;;;;-6.8;100.0;102520;;;;
2022/12/18 04:58:00;;;;;;;6.7;6.5;;;;;;;-6.7;100.0;102520;;;;
2022/12/18 04:59:00;;;;;;;6.7;6.5;;;;;;;-6.7;100.0;102520;;;;
2022/12/18 05:00:00;;;;;;;6.7;6.5;;;;;;;-6.8;100.0;102520;;;;
2022/12/18 05:01:00;;;;;;;6.7;6.5;;;;;;;-6.8;100.0;102520;;;;
2022/12/18 05:02:00;;;;;;;6.7;6.5;;;;;;;-6.7;100.0;102530;;;;
2022/12/18 05:03:01;;;;;;;6.7;6.5;;;;;;;-6.7;100.0;102530;;;;
2022/12/18 05:04:00;;;;;;;6.7;6.5;;;;;;;-6.7;100.0;102530;;;;
2022/12/18 05:05:00;;;;;;;6.7;6.5;;;;;;;-6.7;100.0;102530;;;;
2022/12/18 05:06:00;;;;;;;6.7;6.5;;;;;;;-6.6;100.0;102530;;;;
2022/12/18 05:07:00;;;;;;;6.7;6.5;;;;;;;-6.6;100.0;102530;;;;
2022/12/18 05:08:00;;;;;;;6.7;6.5;;;;;;;-6.6;100.0;102540;;;;
2022/12/18 05:09:00;;;;;;;6.7;6.5;;;;;;;-6.6;100.0;102540;;;;
2022/12/18 05:10:00;;;;;;;6.7;6.5;;;;;;;-6.7;100.0;102540;;;;
2022/12/18 05:11:05;;;;;;;6.7;6.5;;;;;;;-6.7;100.0;102540;;;;
2022/12/18 05:12:00;;;;;;;6.7;6.5;;;;;;;-6.6;100.0;102550;;;;
2022/12/18 05:13:01;;;;;;;6.7;6.5;;;;;;;-6.6;100.0;102550;;;;
2022/12/18 05:14:00;;;;;;;6.6;6.4;;;;;;;-6.7;100.0;102560;;;;
2022/12/18 05:15:00;;;;;;;6.6;6.4;;;;;;;-6.7;100.0;102560;;;;
2022/12/18 05:16:01;;;;;;;6.6;6.4;;;;;;;-6.7;100.0;102560;;;;
2022/12/18 05:17:01;;;;;;;6.6;6.4;;;;;;;-6.7;100.0;102560;;;;
2022/12/18 05:18:01;;;;;;;6.6;6.4;;;;;;;-6.6;100.0;102560;;;;
2022/12/18 05:19:00;;;;;;;6.6;6.4;;;;;;;-6.6;100.0;102560;;;;
2022/12/18 05:20:00;;;;;;;6.6;6.4;;;;;;;-6.5;100.0;102560;;;;
2022/12/18 05:21:00;;;;;;;6.6;6.4;;;;;;;-6.5;100.0;102560;;;;
2022/12/18 05:22:01;;;;;;;6.6;6.4;;;;;;;-6.5;100.0;102560;;;;
2022/12/18 05:23:01;;;;;;;6.6;6.4;;;;;;;-6.5;100.0;102560;;;;
2022/12/18 05:24:00;;;;;;;6.6;6.4;;;;;;;-6.7;100.0;102560;;;;
2022/12/18 05:25:00;;;;;;;6.6;6.4;;;;;;;-6.7;100.0;102560;;;;
2022/12/18 05:26:01;;;;;;;6.6;6.4;;;;;;;-6.7;100.0;102560;;;;
2022/12/18 05:27:00;;;;;;;6.6;6.4;;;;;;;-6.7;100.0;102560;;;;
2022/12/18 05:28:00;;;;;;;6.6;6.4;;;;;;;-6.8;100.0;102560;;;;
2022/12/18 05:29:00;;;;;;;6.6;6.4;;;;;;;-6.8;100.0;102560;;;;
2022/12/18 05:30:00;;;;;;;6.6;6.4;;;;;;;-6.7;100.0;102560;;;;
2022/12/18 05:31:02;;;;;;;6.6;6.4;;;;;;;-6.7;100.0;102560;;;;
2022/12/18 05:32:00;;;;;;;6.6;6.4;;;;;;;-6.7;100.0;102560;;;;
2022/12/18 05:33:00;;;;;;;6.6;6.4;;;;;;;-6.7;100.0;102560;;;;
2022/12/18 05:34:00;;;;;;;6.5;6.3;;;;;;;-6.7;100.0;102550;;;;
2022/12/18 05:35:00;;;;;;;6.5;6.3;;;;;;;-6.7;100.0;102550;;;;
2022/12/18 05:36:01;;;;;;;6.5;6.3;;;;;;;-6.6;100.0;102550;;;;
2022/12/18 05:37:00;;;;;;;6.5;6.3;;;;;;;-6.6;100.0;102550;;;;
2022/12/18 05:38:00;;;;;;;6.5;6.3;;;;;;;-6.7;100.0;102540;;;;
2022/12/18 05:39:00;;;;;;;6.5;6.3;;;;;;;-6.7;100.0;102540;;;;
2022/12/18 05:40:00;;;;;;;6.5;6.3;;;;;;;-6.7;100.0;102540;;;;
2022/12/18 05:41:00;;;;;;;6.5;6.3;;;;;;;-6.7;100.0;102540;;;;
2022/12/18 05:42:00;;;;;;;6.5;6.3;;;;;;;-6.8;100.0;102540;;;;
2022/12/18 05:43:01;;;;;;;6.5;6.3;;;;;;;-6.8;100.0;102540;;;;
2022/12/18 05:44:00;;;;;;;6.5;6.3;;;;;;;-6.8;100.0;102540;;;;
2022/12/18 05:45:00;;;;;;;6.5;6.3;;;;;;;-6.8;100.0;102540;;;;
2022/12/18 05:46:03;;;;;;;6.5;6.3;;;;;;;-6.8;100.0;102540;;;;
2022/12/18 05:47:00;;;;;;;6.5;6.3;;;;;;;-6.8;100.0;102540;;;;
2022/12/18 05:48:00;;;;;;;6.5;6.3;;;;;;;-6.9;100.0;102530;;;;
2022/12/18 05:49:01;;;;;;;6.5;6.3;;;;;;;-6.9;100.0;102530;;;;
2022/12/18 05:50:00;;;;;;;6.5;6.3;;;;;;;-7.1;100.0;102520;;;;
2022/12/18 05:51:09;;;;;;;6.5;6.3;;;;;;;-7.1;100.0;102520;;;;
2022/12/18 05:52:00;;;;;;;6.5;6.3;;;;;;;-7.0;100.0;102520;;;;
2022/12/18 05:53:00;;;;;;;6.5;6.3;;;;;;;-7.0;100.0;102520;;;;
2022/12/18 05:54:00;;;;;;;6.3;6.1;;;;;;;-7.0;100.0;102520;;;;
2022/12/18 05:55:00;;;;;;;6.3;6.1;;;;;;;-7.0;100.0;102520;;;;
2022/12/18 05:56:02;;;;;;;6.3;6.1;;;;;;;-6.9;100.0;102530;;;;
2022/12/18 05:57:00;;;;;;;6.3;6.1;;;;;;;-6.9;100.0;102530;;;;
2022/12/18 05:58:00;;;;;;;6.3;6.1;;;;;;;-6.8;100.0;102530;;;;
2022/12/18 05:59:00;;;;;;;6.3;6.1;;;;;;;-6.8;100.0;102530;;;;
2022/12/18 06:00:00;;;;;;;6.3;6.1;;;;;;;-6.9;100.0;102520;;;;
2022/12/18 06:01:09;;;;;;;6.3;6.1;;;;;;;-6.9;100.0;102520;;;;
2022/12/18 06:02:00;;;;;;;6.3;6.1;;;;;;;-6.8;100.0;102520;;;;
2022/12/18 06:03:00;;;;;;;6.3;6.1;;;;;;;-6.8;100.0;102520;;;;
2022/12/18 06:04:00;;;;;;;6.3;6.1;;;;;;;-6.9;100.0;102520;;;;
2022/12/18 06:05:00;;;;;;;6.3;6.1;;;;;;;-6.9;100.0;102520;;;;
2022/12/18 06:06:00;;;;;;;6.3;6.1;;;;;;;-6.7;100.0;102510;;;;
2022/12/18 06:07:00;;;;;;;6.3;6.1;;;;;;;-6.7;100.0;102510;;;;
2022/12/18 06:08:00;;;;;;;6.3;6.1;;;;;;;-6.8;100.0;102510;;;;
2022/12/18 06:09:01;;;;;;;6.3;6.1;;;;;;;-6.8;100.0;102510;;;;
2022/12/18 06:10:00;;;;;;;6.3;6.1;;;;;;;-6.9;100.0;102500;;;;
2022/12/18 06:11:00;;;;;;;6.3;6.1;;;;;;;-6.9;100.0;102500;;;;
2022/12/18 06:12:00;;;;;;;6.3;6.1;;;;;;;-6.8;100.0;102500;;;;
2022/12/18 06:13:00;;;;;;;6.3;6.1;;;;;;;-6.8;100.0;102500;;;;
2022/12/18 06:14:01;;;;;;;6.0;5.8;;;;;;;-6.7;100.0;102500;;;;
2022/12/18 06:15:00;;;;;;;6.0;5.8;;;;;;;-6.7;100.0;102500;;;;
2022/12/18 06:16:02;;;;;;;6.0;5.8;;;;;;;-6.8;100.0;102490;;;;
2022/12/18 06:17:00;;;;;;;6.0;5.8;;;;;;;-6.8;100.0;102490;;;;
2022/12/18 06:18:01;;;;;;;6.0;5.8;;;;;;;-6.7;100.0;102490;;;;
2022/12/18 06:19:01;;;;;;;6.0;5.8;;;;;;;-6.7;100.0;102490;;;;
2022/12/18 06:20:01;;;;;;;6.0;5.8;;;;;;;-6.8;100.0;102490;;;;
2022/12/18 06:21:00;;;;;;;6.0;5.8;;;;;;;-6.8;100.0;102490;;;;
2022/12/18 06:22:00;;;;;;;6.0;5.8;;;;;;;-6.7;100.0;102490;;;;
2022/12/18 06:23:00;;;;;;;6.0;5.8;;;;;;;-6.7;100.0;102490;;;;
2022/12/18 06:24:00;;;;;;;6.0;5.8;;;;;;;-6.6;100.0;102500;;;;